createdAt,value
2018-04-17T00:00:33.836Z,63.2
2018-04-17T00:01:33.821Z,64.32
2018-04-17T00:02:33.831Z,64.24
2018-04-17T00:03:33.839Z,63.66
2018-04-17T00:04:33.804Z,64
2018-04-17T00:05:33.793Z,63.92
2018-04-17T00:06:33.796Z,64.13
2018-04-17T00:07:33.816Z,63.8
2018-04-17T00:08:33.816Z,64.19
2018-04-17T00:09:33.778Z,63.79
2018-04-17T00:10:33.904Z,64.33
2018-04-17T00:11:33.808Z,64.43
2018-04-17T00:12:33.917Z,65.18
2018-04-17T00:13:33.800Z,65.07
2018-04-17T00:14:33.783Z,65.08
2018-04-17T00:15:33.847Z,64.16
2018-04-17T00:16:33.779Z,64.25
2018-04-17T00:17:33.784Z,64.02
2018-04-17T00:18:33.904Z,64.06
2018-04-17T00:19:33.777Z,63.68
2018-04-17T00:20:33.763Z,64.26
2018-04-17T00:21:33.837Z,64.38
2018-04-17T00:22:33.779Z,64.47
2018-04-17T00:23:33.826Z,64.4
2018-04-17T00:24:33.822Z,64.44
2018-04-17T00:25:33.772Z,64.32
2018-04-17T00:26:33.780Z,63.82
2018-04-17T00:27:33.782Z,64.31
2018-04-17T00:28:33.793Z,65.16
2018-04-17T00:29:33.789Z,63.98
2018-04-17T00:30:33.798Z,63.98
2018-04-17T00:31:33.752Z,64.2
2018-04-17T00:32:33.749Z,64.49
2018-04-17T00:33:33.751Z,64.36
2018-04-17T00:34:33.796Z,64.17
2018-04-17T00:35:33.757Z,64.7
2018-04-17T00:36:33.741Z,63.89
2018-04-17T00:37:33.744Z,63.75
2018-04-17T00:38:33.743Z,64.61
2018-04-17T00:39:33.773Z,64.58
2018-04-17T00:40:33.807Z,63.93
2018-04-17T00:41:33.755Z,64.46
2018-04-17T00:42:33.741Z,64.6
2018-04-17T00:43:33.734Z,64.99
2018-04-17T00:44:33.796Z,64.99
2018-04-17T00:45:33.830Z,65.03
2018-04-17T00:46:33.734Z,65.48
2018-04-17T00:47:33.748Z,65.78
2018-04-17T00:48:33.748Z,66.56
2018-04-17T00:49:33.752Z,66.57
2018-04-17T00:50:33.722Z,66.48
2018-04-17T00:51:33.759Z,65.61
2018-04-17T00:52:33.738Z,65.46
2018-04-17T00:53:33.754Z,66.57
2018-04-17T00:54:33.752Z,65.43
2018-04-17T00:55:33.750Z,65.34
2018-04-17T00:56:33.721Z,65.15
2018-04-17T00:57:33.783Z,65.53
2018-04-17T00:58:33.728Z,64.91
2018-04-17T00:59:33.732Z,66.85
2018-04-17T01:00:33.713Z,66.51
2018-04-17T01:01:33.733Z,66.08
2018-04-17T01:02:33.749Z,66.58
2018-04-17T01:03:33.731Z,66.57
2018-04-17T01:04:33.744Z,66.7
2018-04-17T01:05:33.713Z,66.94
2018-04-17T01:06:33.734Z,67.15
2018-04-17T01:07:33.720Z,67.06
2018-04-17T01:08:33.713Z,66.77
2018-04-17T01:09:33.732Z,66.16
2018-04-17T01:10:33.695Z,66.34
2018-04-17T01:11:33.700Z,66.69
2018-04-17T01:12:33.701Z,66.24
2018-04-17T01:13:33.707Z,66.39
2018-04-17T01:14:33.706Z,66.85
2018-04-17T01:15:33.710Z,66.87
2018-04-17T01:16:33.751Z,67.05
2018-04-17T01:17:33.716Z,66.95
2018-04-17T01:18:33.711Z,66.44
2018-04-17T01:19:33.697Z,66.32
2018-04-17T01:20:33.691Z,66.7
2018-04-17T01:21:33.817Z,67.6
2018-04-17T01:22:33.758Z,67.76
2018-04-17T01:23:33.707Z,67.09
2018-04-17T01:24:33.688Z,67.28
2018-04-17T01:25:33.688Z,68
2018-04-17T01:26:33.710Z,67.72
2018-04-17T01:27:33.666Z,67.88
2018-04-17T01:28:33.677Z,68.33
2018-04-17T01:29:33.695Z,68.37
2018-04-17T01:30:33.667Z,67.76
2018-04-17T01:31:33.753Z,68.21
2018-04-17T01:32:33.674Z,68.22
2018-04-17T01:33:33.696Z,67.56
2018-04-17T01:34:33.664Z,67.38
2018-04-17T01:35:33.667Z,67.6
2018-04-17T01:36:33.744Z,67.84
2018-04-17T01:37:33.673Z,67.16
2018-04-17T01:38:33.667Z,67.66
2018-04-17T01:39:33.652Z,67.35
2018-04-17T01:40:33.669Z,67.65
2018-04-17T01:41:33.691Z,67.44
2018-04-17T01:42:33.887Z,67.67
2018-04-17T01:43:33.663Z,67.54
2018-04-17T01:44:33.659Z,67.35
2018-04-17T01:45:33.658Z,68.17
2018-04-17T01:46:33.645Z,68.3
2018-04-17T01:47:33.654Z,68.41
2018-04-17T01:48:33.643Z,68.39
2018-04-17T01:49:33.668Z,68.25
2018-04-17T01:50:33.652Z,68.05
2018-04-17T01:51:33.634Z,68.04
2018-04-17T01:52:33.644Z,67.95
2018-04-17T01:53:33.672Z,67.56
2018-04-17T01:54:33.655Z,68.15
2018-04-17T01:55:33.769Z,68.31
2018-04-17T01:56:33.625Z,68.08
2018-04-17T01:57:33.656Z,68.06
2018-04-17T01:58:33.630Z,68.63
2018-04-17T01:59:33.631Z,68.51
2018-04-17T02:00:33.685Z,68.45
2018-04-17T02:01:33.620Z,68.81
2018-04-17T02:02:33.641Z,68.84
2018-04-17T02:03:33.615Z,69.03
2018-04-17T02:04:33.621Z,68.99
2018-04-17T02:05:33.679Z,69.03
2018-04-17T02:06:33.782Z,68.91
2018-04-17T02:07:33.686Z,68.67
2018-04-17T02:08:33.632Z,68.35
2018-04-17T02:09:33.629Z,68.37
2018-04-17T02:10:33.671Z,69
2018-04-17T02:11:33.612Z,68.95
2018-04-17T02:12:33.723Z,69.17
2018-04-17T02:13:33.665Z,68.98
2018-04-17T02:14:33.612Z,68.86
2018-04-17T02:15:33.758Z,69.1
2018-04-17T02:16:33.615Z,69.21
2018-04-17T02:17:33.600Z,69.14
2018-04-17T02:18:33.640Z,69.24
2018-04-17T02:19:33.653Z,69.2
2018-04-17T02:20:33.769Z,69.21
2018-04-17T02:21:33.709Z,69.3
2018-04-17T02:22:33.590Z,68.77
2018-04-17T02:23:33.587Z,68.59
2018-04-17T02:24:33.624Z,69.32
2018-04-17T02:25:33.632Z,68.71
2018-04-17T02:26:33.578Z,68.53
2018-04-17T02:27:33.664Z,68.31
2018-04-17T02:28:33.598Z,68.76
2018-04-17T02:29:33.581Z,68.32
2018-04-17T02:30:33.631Z,68.59
2018-04-17T02:31:33.621Z,69.19
2018-04-17T02:32:33.600Z,68.58
2018-04-17T02:33:33.593Z,68.07
2018-04-17T02:34:33.592Z,68.38
2018-04-17T02:35:33.605Z,68.22
2018-04-17T02:36:33.572Z,68.14
2018-04-17T02:37:33.567Z,68.09
2018-04-17T02:38:33.603Z,68.73
2018-04-17T02:39:33.609Z,68.95
2018-04-17T02:40:33.613Z,68.43
2018-04-17T02:41:33.568Z,68.69
2018-04-17T02:42:33.557Z,69.64
2018-04-17T02:43:33.577Z,70.11
2018-04-17T02:44:33.580Z,69.99
2018-04-17T02:45:33.603Z,69.83
2018-04-17T02:46:33.570Z,69.45
2018-04-17T02:47:33.842Z,69.43
2018-04-17T02:48:33.573Z,69.94
2018-04-17T02:49:33.560Z,70.09
2018-04-17T02:50:33.544Z,69.29
2018-04-17T02:51:33.567Z,69.65
2018-04-17T02:52:33.561Z,69.81
2018-04-17T02:53:33.621Z,69.98
2018-04-17T02:54:33.568Z,70.48
2018-04-17T02:55:33.563Z,70.63
2018-04-17T02:56:33.575Z,70.23
2018-04-17T02:57:33.542Z,69.84
2018-04-17T02:58:33.549Z,70.25
2018-04-17T02:59:33.645Z,70.59
2018-04-17T03:00:33.574Z,70.64
2018-04-17T03:01:33.540Z,70.26
2018-04-17T03:02:33.555Z,70.6
2018-04-17T03:03:33.550Z,70.46
2018-04-17T03:04:33.525Z,70.41
2018-04-17T03:05:33.598Z,70.31
2018-04-17T03:06:33.543Z,70.26
2018-04-17T03:07:33.661Z,70.81
2018-04-17T03:08:33.534Z,70.46
2018-04-17T03:09:33.694Z,70.11
2018-04-17T03:10:33.534Z,69.68
2018-04-17T03:11:33.508Z,70.75
2018-04-17T03:12:33.522Z,70.44
2018-04-17T03:13:33.574Z,70.75
2018-04-17T03:14:33.519Z,70.38
2018-04-17T03:15:33.518Z,70.19
2018-04-17T03:16:33.507Z,70.72
2018-04-17T03:17:33.505Z,70
2018-04-17T03:18:33.513Z,69.99
2018-04-17T03:19:33.560Z,71
2018-04-17T03:20:33.533Z,70.7
2018-04-17T03:21:33.669Z,70.71
2018-04-17T03:22:33.517Z,70.74
2018-04-17T03:23:33.524Z,69.86
2018-04-17T03:24:33.540Z,70.68
2018-04-17T03:25:33.538Z,70.78
2018-04-17T03:26:33.504Z,70.64
2018-04-17T03:27:33.521Z,70.79
2018-04-17T03:28:33.510Z,70.95
2018-04-17T03:29:33.498Z,70.42
2018-04-17T03:30:33.502Z,71.15
2018-04-17T03:31:33.511Z,71.03
2018-04-17T03:32:33.540Z,71.06
2018-04-17T03:33:33.524Z,71.03
2018-04-17T03:34:33.498Z,70.79
2018-04-17T03:35:33.511Z,70.6
2018-04-17T03:36:33.512Z,70.31
2018-04-17T03:37:33.507Z,70.25
2018-04-17T03:38:33.494Z,69.88
2018-04-17T03:39:33.736Z,69.93
2018-04-17T03:40:33.502Z,70.17
2018-04-17T03:41:33.557Z,70.88
2018-04-17T03:42:33.495Z,70.51
2018-04-17T03:43:33.499Z,70.11
2018-04-17T03:44:33.494Z,70.2
2018-04-17T03:45:33.724Z,71.33
2018-04-17T03:46:33.509Z,71.12
2018-04-17T03:47:33.487Z,70.7
2018-04-17T03:48:33.479Z,70.64
2018-04-17T03:49:33.499Z,71.11
2018-04-17T03:50:33.513Z,71.1
2018-04-17T03:51:33.485Z,70.51
2018-04-17T03:52:33.474Z,71.68
2018-04-17T03:53:33.494Z,71.34
2018-04-17T03:54:33.462Z,70.93
2018-04-17T03:55:33.731Z,71.35
2018-04-17T03:56:33.498Z,70.91
2018-04-17T03:57:33.464Z,71.78
2018-04-17T03:58:33.476Z,71.92
2018-04-17T03:59:33.465Z,71.29
2018-04-17T04:00:33.490Z,71.47
2018-04-17T04:01:33.478Z,70.85
2018-04-17T04:02:33.503Z,71.54
2018-04-17T04:03:33.463Z,71.18
2018-04-17T04:04:33.454Z,70.79
2018-04-17T04:05:33.743Z,70.97
2018-04-17T04:06:33.473Z,70.93
2018-04-17T04:07:33.438Z,71.37
2018-04-17T04:08:33.423Z,71.61
2018-04-17T04:09:33.453Z,71.49
2018-04-17T04:10:33.665Z,71.61
2018-04-17T04:11:33.450Z,71.02
2018-04-17T04:12:33.447Z,71.62
2018-04-17T04:13:33.455Z,71.2
2018-04-17T04:14:33.530Z,71.45
2018-04-17T04:15:33.742Z,71.67
2018-04-17T04:16:33.482Z,72.05
2018-04-17T04:17:33.455Z,72.25
2018-04-17T04:18:33.444Z,71.39
2018-04-17T04:19:33.424Z,71.54
2018-04-17T04:20:33.453Z,71.83
2018-04-17T04:21:33.470Z,72.22
2018-04-17T04:22:33.440Z,71.63
2018-04-17T04:23:33.446Z,72.34
2018-04-17T04:24:33.442Z,72.65
2018-04-17T04:25:33.438Z,71.82
2018-04-17T04:26:33.453Z,72.28
2018-04-17T04:27:33.689Z,72.26
2018-04-17T04:28:33.456Z,72.65
2018-04-17T04:29:33.447Z,72.62
2018-04-17T04:30:33.476Z,72.57
2018-04-17T04:31:33.416Z,72.57
2018-04-17T04:32:33.470Z,72.72
2018-04-17T04:33:33.423Z,72.7
2018-04-17T04:34:33.472Z,72.69
2018-04-17T04:35:33.505Z,72.71
2018-04-17T04:36:33.440Z,72.79
2018-04-17T04:37:33.409Z,71.86
2018-04-17T04:38:33.410Z,72.64
2018-04-17T04:39:33.548Z,72.02
2018-04-17T04:40:33.433Z,71.85
2018-04-17T04:41:33.387Z,72.34
2018-04-17T04:42:33.456Z,72.79
2018-04-17T04:43:33.402Z,72.94
2018-04-17T04:44:33.399Z,72.69
2018-04-17T04:45:33.453Z,73.36
2018-04-17T04:46:33.402Z,72.81
2018-04-17T04:47:33.410Z,72.51
2018-04-17T04:48:33.381Z,72.56
2018-04-17T04:49:33.387Z,73.82
2018-04-17T04:50:33.386Z,73.29
2018-04-17T04:51:33.391Z,73.08
2018-04-17T04:52:33.386Z,72.47
2018-04-17T04:53:33.420Z,72.99
2018-04-17T04:54:33.368Z,72.8
2018-04-17T04:55:33.402Z,72.7
2018-04-17T04:56:33.382Z,71.98
2018-04-17T04:57:33.390Z,72.48
2018-04-17T04:58:33.378Z,72.73
2018-04-17T04:59:33.370Z,72.87
2018-04-17T05:00:33.431Z,72.35
2018-04-17T05:01:33.372Z,73.53
2018-04-17T05:02:33.375Z,73.46
2018-04-17T05:03:33.382Z,73.32
2018-04-17T05:04:33.368Z,73.92
2018-04-17T05:05:33.360Z,72.98
2018-04-17T05:06:33.474Z,72.59
2018-04-17T05:07:33.373Z,72.32
2018-04-17T05:08:33.364Z,72.5
2018-04-17T05:09:33.367Z,72.2
2018-04-17T05:10:33.346Z,73.66
2018-04-17T05:11:33.340Z,73.48
2018-04-17T05:12:33.370Z,73.71
2018-04-17T05:13:33.389Z,73.8
2018-04-17T05:14:33.375Z,73.98
2018-04-17T05:15:33.351Z,73.15
2018-04-17T05:16:33.388Z,73.19
2018-04-17T05:17:33.377Z,73.62
2018-04-17T05:18:33.616Z,73.33
2018-04-17T05:19:33.365Z,73.19
2018-04-17T05:20:33.417Z,72.93
2018-04-17T05:21:33.473Z,73.01
2018-04-17T05:22:33.370Z,73.52
2018-04-17T05:23:33.372Z,74.22
2018-04-17T05:24:33.444Z,74.29
2018-04-17T05:25:33.333Z,74.17
2018-04-17T05:26:33.389Z,74.14
2018-04-17T05:27:33.341Z,73.93
2018-04-17T05:28:33.338Z,73.64
2018-04-17T05:29:33.368Z,73.4
2018-04-17T05:30:33.325Z,73.4
2018-04-17T05:31:33.343Z,73.57
2018-04-17T05:32:33.325Z,73.99
2018-04-17T05:33:33.488Z,73.12
2018-04-17T05:34:33.318Z,74.01
2018-04-17T05:35:33.346Z,73.27
2018-04-17T05:36:33.496Z,73.37
2018-04-17T05:37:33.349Z,73.15
2018-04-17T05:38:33.308Z,73.22
2018-04-17T05:39:33.324Z,74.2
2018-04-17T05:40:33.326Z,74.24
2018-04-17T05:41:33.319Z,73.35
2018-04-17T05:42:33.334Z,73.98
2018-04-17T05:43:33.310Z,73.91
2018-04-17T05:44:33.354Z,73.72
2018-04-17T05:45:33.357Z,73.62
2018-04-17T05:46:33.325Z,73.64
2018-04-17T05:47:33.328Z,73.69
2018-04-17T05:48:33.333Z,73.12
2018-04-17T05:49:33.290Z,73.66
2018-04-17T05:50:33.305Z,73.25
2018-04-17T05:51:33.336Z,73.05
2018-04-17T05:52:33.351Z,72.56
2018-04-17T05:53:33.306Z,72.8
2018-04-17T05:54:33.414Z,72.85
2018-04-17T05:55:33.286Z,72.93
2018-04-17T05:56:33.324Z,72.24
2018-04-17T05:57:33.312Z,73.36
2018-04-17T05:58:33.413Z,73.13
2018-04-17T05:59:33.301Z,73.21
2018-04-17T06:00:33.295Z,73.2
2018-04-17T06:01:33.277Z,73.72
2018-04-17T06:02:33.314Z,72.96
2018-04-17T06:03:33.316Z,73.41
2018-04-17T06:04:33.401Z,72.95
2018-04-17T06:05:33.287Z,73.64
2018-04-17T06:06:33.406Z,73.75
2018-04-17T06:07:33.312Z,73.64
2018-04-17T06:08:33.261Z,73.47
2018-04-17T06:09:33.255Z,73.46
2018-04-17T06:10:33.278Z,72.99
2018-04-17T06:11:33.295Z,73.16
2018-04-17T06:12:33.287Z,72.82
2018-04-17T06:13:33.265Z,72.81
2018-04-17T06:14:33.260Z,73.74
2018-04-17T06:15:33.238Z,73.12
2018-04-17T06:16:33.281Z,73.9
2018-04-17T06:17:33.275Z,73.43
2018-04-17T06:18:33.282Z,73.87
2018-04-17T06:19:33.285Z,73.37
2018-04-17T06:20:33.341Z,73.82
2018-04-17T06:21:33.261Z,73.12
2018-04-17T06:22:33.326Z,72.77
2018-04-17T06:23:33.349Z,73.38
2018-04-17T06:24:33.257Z,72.83
2018-04-17T06:25:33.284Z,73.11
2018-04-17T06:26:33.306Z,72.48
2018-04-17T06:27:33.247Z,72.27
2018-04-17T06:28:33.305Z,71.76
2018-04-17T06:29:33.270Z,71.9
2018-04-17T06:30:33.254Z,72.01
2018-04-17T06:31:33.236Z,72.61
2018-04-17T06:32:33.250Z,72.57
2018-04-17T06:33:33.270Z,72.19
2018-04-17T06:34:33.336Z,72.43
2018-04-17T06:35:33.247Z,72.55
2018-04-17T06:36:33.236Z,72.14
2018-04-17T06:37:33.257Z,71.93
2018-04-17T06:38:33.261Z,71.4
2018-04-17T06:39:33.214Z,72.13
2018-04-17T06:40:33.247Z,71.9
2018-04-17T06:41:33.235Z,71.51
2018-04-17T06:42:33.277Z,71.16
2018-04-17T06:43:33.232Z,71.94
2018-04-17T06:44:33.326Z,72.44
2018-04-17T06:45:33.225Z,72.3
2018-04-17T06:46:33.214Z,71.59
2018-04-17T06:47:33.745Z,71.78
2018-04-17T06:48:33.229Z,71.98
2018-04-17T06:49:33.247Z,72.36
2018-04-17T06:50:33.234Z,71.74
2018-04-17T06:51:33.205Z,71.98
2018-04-17T06:52:33.346Z,71.91
2018-04-17T06:53:33.270Z,71.47
2018-04-17T06:54:34.041Z,71.76
2018-04-17T06:55:33.227Z,71.75
2018-04-17T06:56:33.238Z,71.6
2018-04-17T06:57:33.242Z,71.36
2018-04-17T06:58:33.243Z,71.12
2018-04-17T06:59:33.210Z,71.68
2018-04-17T07:00:33.175Z,71.68
2018-04-17T07:01:33.177Z,71.53
2018-04-17T07:02:33.169Z,71.92
2018-04-17T07:03:33.333Z,71.56
2018-04-17T07:04:33.183Z,72.07
2018-04-17T07:05:33.250Z,71.4
2018-04-17T07:06:33.189Z,70.91
2018-04-17T07:07:33.164Z,70.21
2018-04-17T07:08:33.190Z,70.58
2018-04-17T07:09:33.183Z,70.6
2018-04-17T07:10:33.158Z,70.11
2018-04-17T07:11:33.196Z,70.2
2018-04-17T07:12:33.184Z,70.39
2018-04-17T07:13:33.193Z,70.06
2018-04-17T07:14:33.263Z,70.5
2018-04-17T07:15:33.171Z,69.99
2018-04-17T07:16:33.180Z,70.58
2018-04-17T07:17:33.220Z,70.53
2018-04-17T07:18:33.227Z,70.17
2018-04-17T07:19:33.202Z,69.98
2018-04-17T07:20:33.166Z,69.77
2018-04-17T07:21:33.161Z,70.08
2018-04-17T07:22:33.168Z,70.22
2018-04-17T07:23:33.199Z,70.2
2018-04-17T07:24:33.149Z,69.14
2018-04-17T07:25:33.166Z,68.9
2018-04-17T07:26:33.156Z,68.46
2018-04-17T07:27:33.149Z,68.98
2018-04-17T07:28:33.177Z,69.23
2018-04-17T07:29:33.147Z,68.98
2018-04-17T07:30:33.165Z,68.34
2018-04-17T07:31:33.118Z,68.12
2018-04-17T07:32:33.165Z,68.2
2018-04-17T07:33:33.157Z,68.09
2018-04-17T07:34:33.148Z,68.07
2018-04-17T07:35:33.166Z,68.92
2018-04-17T07:36:33.119Z,68.28
2018-04-17T07:37:33.130Z,68.66
2018-04-17T07:38:33.180Z,68.93
2018-04-17T07:39:33.121Z,68.39
2018-04-17T07:40:33.585Z,67.9
2018-04-17T07:41:33.143Z,67.96
2018-04-17T07:42:33.121Z,68.09
2018-04-17T07:43:33.186Z,68.06
2018-04-17T07:44:33.119Z,67.28
2018-04-17T07:45:33.104Z,67.55
2018-04-17T07:46:33.124Z,67.85
2018-04-17T07:47:33.148Z,67.87
2018-04-17T07:48:33.117Z,67.85
2018-04-17T07:49:33.090Z,67.39
2018-04-17T07:50:33.091Z,67.25
2018-04-17T07:51:33.092Z,67.08
2018-04-17T07:52:33.127Z,67.46
2018-04-17T07:53:33.152Z,67.16
2018-04-17T07:54:33.276Z,67.12
2018-04-17T07:55:33.170Z,67.11
2018-04-17T07:56:33.119Z,66.89
2018-04-17T07:57:33.124Z,66.79
2018-04-17T07:58:33.112Z,66.61
2018-04-17T07:59:33.135Z,67.48
2018-04-17T08:00:33.105Z,66.46
2018-04-17T08:01:33.138Z,66.56
2018-04-17T08:02:33.109Z,65.84
2018-04-17T08:03:33.066Z,66.2
2018-04-17T08:04:33.129Z,66.56
2018-04-17T08:05:33.074Z,67.19
2018-04-17T08:06:33.111Z,67.43
2018-04-17T08:07:33.093Z,67.07
2018-04-17T08:08:33.093Z,67.09
2018-04-17T08:09:33.238Z,67
2018-04-17T08:10:33.093Z,66.47
2018-04-17T08:11:33.079Z,66.45
2018-04-17T08:12:33.080Z,65.8
2018-04-17T08:13:33.109Z,66.86
2018-04-17T08:14:33.089Z,66
2018-04-17T08:15:33.144Z,65.83
2018-04-17T08:16:33.135Z,65.55
2018-04-17T08:17:33.191Z,65.28
2018-04-17T08:18:33.107Z,65.36
2018-04-17T08:19:33.162Z,65.73
2018-04-17T08:20:33.119Z,65.34
2018-04-17T08:21:33.080Z,64.37
2018-04-17T08:22:33.049Z,63.96
2018-04-17T08:23:33.508Z,63.51
2018-04-17T08:24:33.114Z,64.45
2018-04-17T08:25:33.050Z,64.61
2018-04-17T08:26:33.083Z,62.92
2018-04-17T08:27:33.055Z,62.53
2018-04-17T08:28:33.329Z,62.8
2018-04-17T08:29:33.063Z,63.11
2018-04-17T08:30:33.040Z,62.99
2018-04-17T08:31:33.055Z,62.46
2018-04-17T08:32:33.053Z,61.89
2018-04-17T08:33:33.089Z,62.06
2018-04-17T08:34:34.324Z,63.29
2018-04-17T08:35:33.044Z,62.19
2018-04-17T08:36:33.035Z,62.02
2018-04-17T08:37:33.177Z,61.67
2018-04-17T08:38:33.106Z,61.96
2018-04-17T08:39:33.040Z,62.02
2018-04-17T08:40:33.055Z,61.54
2018-04-17T08:41:33.052Z,61.47
2018-04-17T08:42:33.047Z,61.24
2018-04-17T08:43:33.060Z,61.19
2018-04-17T08:44:33.052Z,61.32
2018-04-17T08:45:33.038Z,61.25
2018-04-17T08:46:33.076Z,62.62
2018-04-17T08:47:33.019Z,60.53
2018-04-17T08:48:33.014Z,59.91
2018-04-17T08:49:33.028Z,60.82
2018-04-17T08:50:33.001Z,61.71
2018-04-17T08:51:33.030Z,61.14
2018-04-17T08:52:33.239Z,59.25
2018-04-17T08:53:33.009Z,60.34
2018-04-17T08:54:33.262Z,60.19
2018-04-17T08:55:33.014Z,60.44
2018-04-17T08:56:33.043Z,61.07
2018-04-17T08:57:33.016Z,60.31
2018-04-17T08:58:33.024Z,59.35
2018-04-17T08:59:33.228Z,60.55
2018-04-17T09:00:33.031Z,59.81
2018-04-17T09:01:33.010Z,58.56
2018-04-17T09:02:33.123Z,59.49
2018-04-17T09:03:33.080Z,58.72
2018-04-17T09:04:33.279Z,58.46
2018-04-17T09:05:32.987Z,59.53
2018-04-17T09:06:33.022Z,59.14
2018-04-17T09:07:32.977Z,59.06
2018-04-17T09:08:33.009Z,58.71
2018-04-17T09:09:33.006Z,58.56
2018-04-17T09:10:33.084Z,58.79
2018-04-17T09:11:32.980Z,58.66
2018-04-17T09:12:33.021Z,59.69
2018-04-17T09:13:33.026Z,57.76
2018-04-17T09:14:33.004Z,57.75
2018-04-17T09:15:32.976Z,58.82
2018-04-17T09:16:32.980Z,59.92
2018-04-17T09:17:32.976Z,58.67
2018-04-17T09:18:33.018Z,58.5
2018-04-17T09:19:33.000Z,57.75
2018-04-17T09:20:32.992Z,57.69
2018-04-17T09:21:32.957Z,57.83
2018-04-17T09:22:33.026Z,58.38
2018-04-17T09:23:33.131Z,57.94
2018-04-17T09:24:32.984Z,57.22
2018-04-17T09:25:32.981Z,57.18
2018-04-17T09:26:32.985Z,57.01
2018-04-17T09:27:33.181Z,58.18
2018-04-17T09:28:33.000Z,58.62
2018-04-17T09:29:32.966Z,59.21
2018-04-17T09:30:32.967Z,59.61
2018-04-17T09:31:33.083Z,59.65
2018-04-17T09:32:32.963Z,59.28
2018-04-17T09:33:33.007Z,59.49
2018-04-17T09:34:33.319Z,58.08
2018-04-17T09:35:32.970Z,58.92
2018-04-17T09:36:32.946Z,59.07
2018-04-17T09:37:33.021Z,57.62
2018-04-17T09:38:32.990Z,58.39
2018-04-17T09:39:32.972Z,58.13
2018-04-17T09:40:32.974Z,58.41
2018-04-17T09:41:32.990Z,57.13
2018-04-17T09:42:33.099Z,57.49
2018-04-17T09:43:33.045Z,58.47
2018-04-17T09:44:33.022Z,58.07
2018-04-17T09:45:32.965Z,56.38
2018-04-17T09:46:33.028Z,56.49
2018-04-17T09:47:32.926Z,55.88
2018-04-17T09:48:32.943Z,56.03
2018-04-17T09:49:32.944Z,56.05
2018-04-17T09:50:33.055Z,56.03
2018-04-17T09:51:32.928Z,56.05
2018-04-17T09:52:32.915Z,56.47
2018-04-17T09:53:32.964Z,56.29
2018-04-17T09:54:33.015Z,56.07
2018-04-17T09:55:32.944Z,55.87
2018-04-17T09:56:32.984Z,55.26
2018-04-17T09:57:33.188Z,55.86
2018-04-17T09:58:32.979Z,55.95
2018-04-17T09:59:32.913Z,55.9
2018-04-17T10:00:32.940Z,55.16
2018-04-17T10:01:32.929Z,54.97
2018-04-17T10:02:32.906Z,55.92
2018-04-17T10:03:33.015Z,55.14
2018-04-17T10:04:32.921Z,54.92
2018-04-17T10:05:32.921Z,53.94
2018-04-17T10:06:32.930Z,53.81
2018-04-17T10:07:32.982Z,54.47
2018-04-17T10:08:32.964Z,54.77
2018-04-17T10:09:32.906Z,56.17
2018-04-17T10:10:32.926Z,55.21
2018-04-17T10:11:32.894Z,54.05
2018-04-17T10:12:32.897Z,54.74
2018-04-17T10:13:32.896Z,54.76
2018-04-17T10:14:32.937Z,54.67
2018-04-17T10:15:32.949Z,54.61
2018-04-17T10:16:33.055Z,55.14
2018-04-17T10:17:32.910Z,55.13
2018-04-17T10:18:32.892Z,56.15
2018-04-17T10:19:32.948Z,54.72
2018-04-17T10:20:32.932Z,55.22
2018-04-17T10:21:33.030Z,55.41
2018-04-17T10:22:33.174Z,55.63
2018-04-17T10:23:32.874Z,55.22
2018-04-17T10:24:32.918Z,54.87
2018-04-17T10:25:32.888Z,55.46
2018-04-17T10:26:32.895Z,54.94
2018-04-17T10:27:32.924Z,55.29
2018-04-17T10:28:32.869Z,55.11
2018-04-17T10:29:32.863Z,54.62
2018-04-17T10:30:32.884Z,54.41
2018-04-17T10:31:32.905Z,54.12
2018-04-17T10:32:32.893Z,53.87
2018-04-17T10:33:32.905Z,54.18
2018-04-17T10:34:32.939Z,53.53
2018-04-17T10:35:32.878Z,52.76
2018-04-17T10:36:32.896Z,53.03
2018-04-17T10:37:32.867Z,52.33
2018-04-17T10:38:32.898Z,52.48
2018-04-17T10:39:32.925Z,52.87
2018-04-17T10:40:32.875Z,52.97
2018-04-17T10:41:32.888Z,52.96
2018-04-17T10:42:32.853Z,53.3
2018-04-17T10:43:32.931Z,53.24
2018-04-17T10:44:32.872Z,52.93
2018-04-17T10:45:32.894Z,53
2018-04-17T10:46:33.148Z,52.99
2018-04-17T10:47:32.887Z,52.61
2018-04-17T10:48:32.884Z,53
2018-04-17T10:49:32.919Z,53.02
2018-04-17T10:50:32.878Z,53.06
2018-04-17T10:51:32.883Z,52.72
2018-04-17T10:52:32.865Z,51.68
2018-04-17T10:53:32.885Z,52.03
2018-04-17T10:54:32.856Z,51.81
2018-04-17T10:55:32.885Z,52.25
2018-04-17T10:56:32.927Z,51.98
2018-04-17T10:57:32.866Z,52.75
2018-04-17T10:58:32.821Z,51.1
2018-04-17T10:59:32.861Z,50.84
2018-04-17T11:00:32.882Z,50.15
2018-04-17T11:01:32.899Z,48.84
2018-04-17T11:02:32.846Z,49.97
2018-04-17T11:03:32.874Z,47.79
2018-04-17T11:04:32.815Z,47.26
2018-04-17T11:05:32.846Z,48.41
2018-04-17T11:06:33.083Z,47.33
2018-04-17T11:07:32.894Z,46.92
2018-04-17T11:08:32.841Z,47.28
2018-04-17T11:09:32.820Z,46.43
2018-04-17T11:10:32.833Z,46.27
2018-04-17T11:11:32.877Z,45.99
2018-04-17T11:12:32.975Z,46.41
2018-04-17T11:13:32.839Z,47.83
2018-04-17T11:14:32.847Z,47.75
2018-04-17T11:15:32.805Z,47.34
2018-04-17T11:16:32.888Z,46.22
2018-04-17T11:17:32.820Z,45.29
2018-04-17T11:18:32.953Z,46.11
2018-04-17T11:19:32.820Z,46.14
2018-04-17T11:20:32.853Z,46.79
2018-04-17T11:21:33.117Z,46.27
2018-04-17T11:22:32.789Z,46.66
2018-04-17T11:23:32.794Z,46.89
2018-04-17T11:24:32.816Z,48.71
2018-04-17T11:25:32.849Z,48.51
2018-04-17T11:26:32.812Z,46
2018-04-17T11:27:32.793Z,43.33
2018-04-17T11:28:32.873Z,44.13
2018-04-17T11:29:32.796Z,46.33
2018-04-17T11:30:32.834Z,45.49
2018-04-17T11:31:32.848Z,43.13
2018-04-17T11:32:32.825Z,42.95
2018-04-17T11:33:32.818Z,43.47
2018-04-17T11:34:33.030Z,43.57
2018-04-17T11:35:32.880Z,43.61
2018-04-17T11:36:32.800Z,44.15
2018-04-17T11:37:32.794Z,43.5
2018-04-17T11:38:32.839Z,42.34
2018-04-17T11:39:32.858Z,41.56
2018-04-17T11:40:32.778Z,43.22
2018-04-17T11:41:32.816Z,44.53
2018-04-17T11:42:32.823Z,42.61
2018-04-17T11:43:32.833Z,44.09
2018-04-17T11:44:32.795Z,44.45
2018-04-17T11:45:32.771Z,43.58
2018-04-17T11:46:32.828Z,44.52
2018-04-17T11:47:32.789Z,43.86
2018-04-17T11:48:32.926Z,43.06
2018-04-17T11:49:32.803Z,43.19
2018-04-17T11:50:32.847Z,43.23
2018-04-17T11:51:32.780Z,42.16
2018-04-17T11:52:32.773Z,42.32
2018-04-17T11:53:32.854Z,42.29
2018-04-17T11:54:32.784Z,42.53
2018-04-17T11:55:32.756Z,41.36
2018-04-17T11:56:32.950Z,41.7
2018-04-17T11:57:32.923Z,42.48
2018-04-17T11:58:32.798Z,42.5
2018-04-17T11:59:32.766Z,42.09
2018-04-17T12:00:32.776Z,43.05
2018-04-17T12:01:32.809Z,42.63
2018-04-17T12:02:32.746Z,42.89
2018-04-17T12:03:32.761Z,40.01
2018-04-17T12:04:32.805Z,42.08
2018-04-17T12:05:32.809Z,42.1
2018-04-17T12:06:32.750Z,42.34
2018-04-17T12:07:32.755Z,40.63
2018-04-17T12:08:32.750Z,39.14
2018-04-17T12:09:32.753Z,40.32
2018-04-17T12:10:32.745Z,41.49
2018-04-17T12:11:32.766Z,41.67
2018-04-17T12:12:32.793Z,40.5
2018-04-17T12:13:32.739Z,39.57
2018-04-17T12:14:32.735Z,39.6
2018-04-17T12:15:32.759Z,39.89
2018-04-17T12:16:32.753Z,39.43
2018-04-17T12:17:32.787Z,40.17
2018-04-17T12:18:32.759Z,40.76
2018-04-17T12:19:32.756Z,39.29
2018-04-17T12:20:32.741Z,41.39
2018-04-17T12:21:32.740Z,41.08
2018-04-17T12:22:32.736Z,38.99
2018-04-17T12:23:32.794Z,39.44
2018-04-17T12:24:32.729Z,39.27
2018-04-17T12:25:32.721Z,37.89
2018-04-17T12:26:32.757Z,38.88
2018-04-17T12:27:32.858Z,38.87
2018-04-17T12:28:32.742Z,37.47
2018-04-17T12:29:32.705Z,37.48
2018-04-17T12:30:32.732Z,39.41
2018-04-17T12:31:32.734Z,39.75
2018-04-17T12:32:32.881Z,37.87
2018-04-17T12:33:32.699Z,38.6
2018-04-17T12:34:32.964Z,39.18
2018-04-17T12:35:32.715Z,38.06
2018-04-17T12:36:32.698Z,38.02
2018-04-17T12:37:32.714Z,38.09
2018-04-17T12:38:32.717Z,36.35
2018-04-17T12:39:32.688Z,37.54
2018-04-17T12:40:32.756Z,37.03
2018-04-17T12:41:32.720Z,37.91
2018-04-17T12:42:32.727Z,35.24
2018-04-17T12:43:32.713Z,35.14
2018-04-17T12:44:32.831Z,38.2
2018-04-17T12:45:32.691Z,37.96
2018-04-17T12:46:32.689Z,38.89
2018-04-17T12:47:32.788Z,38.07
2018-04-17T12:48:32.707Z,38.17
2018-04-17T12:49:32.683Z,36.14
2018-04-17T12:50:32.676Z,38.01
2018-04-17T12:51:32.728Z,34.71
2018-04-17T12:52:32.718Z,35.9
2018-04-17T12:53:32.670Z,36.65
2018-04-17T12:54:32.685Z,37.28
2018-04-17T12:55:32.691Z,38.23